Riverton, Mississippi
Current Conditions -  °F | °C
As of 8:35 PM on Wednesday 24 Dec 2014 (Local Time) from KCKM Reporting Station
Broken Clouds Broken Clouds  
Wind Chill: 36°   Ceiling: 4600
Heat Index: 41°   Visibility: 10mi
Dew Point: 37°   Wind: 8mph
Humidity: 87%   Direction: 240°WSW
Pressure: 30.01"   Gusts: NA
Location:  34.1809°N, 90.6118°W
Report Text: KCKM 250235Z AUTO 24007KT 10SM BKN046 05/03 A3001 RMK AO1
Loading
Personal Weather Stations






























Interactive Weather Map New forecast layout! Learn more

10-Day Weather Forecast

Advertisements
Track Severe Weather on mobile